createdAt,value
2022-12-23T00:00:45.096Z,97572.13
2022-12-23T00:03:24.304Z,97581.09
2022-12-23T00:05:52.271Z,97582.75
2022-12-23T00:08:20.202Z,97581.09
2022-12-23T00:10:49.524Z,97581.94
2022-12-23T00:13:36.078Z,97590.13
2022-12-23T00:16:09.518Z,97590.31
2022-12-23T00:18:37.348Z,97583.19
2022-12-23T00:21:10.535Z,97592.16
2022-12-23T00:23:40.933Z,97587.91
2022-12-23T00:26:21.885Z,97592.16
2022-12-23T00:28:49.878Z,97590.56
2022-12-23T00:31:18.833Z,97591.56
2022-12-23T00:33:47.990Z,97588.91
2022-12-23T00:36:25.659Z,97597.91
2022-12-23T00:39:12.455Z,97597.91
2022-12-23T00:41:58.575Z,97603.22
2022-12-23T00:44:26.240Z,97599.53
2022-12-23T00:46:54.007Z,97600.75
2022-12-23T00:49:39.861Z,97603.56
2022-12-23T00:52:10.080Z,97606.44
2022-12-23T00:54:37.382Z,97609.69
2022-12-23T00:57:05.101Z,97611.72
2022-12-23T00:59:33.466Z,97612.53
2022-12-23T01:02:19.993Z,97613.56
2022-12-23T01:05:06.066Z,97611.50
2022-12-23T01:07:33.660Z,97603.94
2022-12-23T01:10:00.908Z,97602.94
2022-12-23T01:12:28.618Z,97603.50
2022-12-23T01:14:55.964Z,97599.84
2022-12-23T01:17:23.757Z,97598.19
2022-12-23T01:19:51.534Z,97610.47
2022-12-23T01:22:19.066Z,97607.63
2022-12-23T01:24:46.272Z,97608.41
2022-12-23T01:27:13.825Z,97610.47
2022-12-23T01:29:41.115Z,97606.16
2022-12-23T01:32:08.736Z,97605.75
2022-12-23T01:34:37.636Z,97611.28
2022-12-23T01:37:05.947Z,97600.66
2022-12-23T01:39:33.188Z,97608.81
2022-12-23T01:42:22.739Z,97608.81
2022-12-23T01:45:05.941Z,97611.72
2022-12-23T01:47:42.323Z,97600.28
2022-12-23T01:50:15.127Z,97605.59
2022-12-23T01:53:09.638Z,97610.91
2022-12-23T01:55:42.260Z,97602.94
2022-12-23T01:58:45.862Z,97614.56
2022-12-23T02:01:32.441Z,97615.38
2022-12-23T02:04:05.245Z,97618.28
2022-12-23T02:06:55.211Z,97612.13
2022-12-23T02:09:24.570Z,97621.94
2022-12-23T02:12:29.485Z,97625.41
2022-12-23T02:15:25.429Z,97636.28
2022-12-23T02:18:19.985Z,97636.47
2022-12-23T02:21:34.637Z,97641.00
2022-12-23T02:24:11.888Z,97648.97
2022-12-23T02:27:15.191Z,97642.81
2022-12-23T02:30:03.793Z,97637.28
2022-12-23T02:32:49.712Z,97642.00
2022-12-23T02:35:30.298Z,97633.00
2022-12-23T02:37:57.706Z,97636.69
2022-12-23T02:40:52.795Z,97633.41
2022-12-23T02:43:23.898Z,97637.13
2022-12-23T02:46:04.920Z,97642.44
2022-12-23T02:48:56.646Z,97634.25
2022-12-23T02:51:30.141Z,97633.84
2022-12-23T02:54:02.272Z,97633.84
2022-12-23T02:56:33.994Z,97635.69
2022-12-23T02:59:21.913Z,97630.16
2022-12-23T03:01:51.884Z,97635.91
2022-12-23T03:04:19.639Z,97635.91
2022-12-23T03:06:54.266Z,97631.41
2022-12-23T03:09:27.209Z,97627.94
2022-12-23T03:12:16.031Z,97622.00
2022-12-23T03:15:11.763Z,97632.63
2022-12-23T03:18:00.328Z,97624.66
2022-12-23T03:20:50.139Z,97624.06
2022-12-23T03:23:39.280Z,97626.72
2022-12-23T03:26:23.419Z,97620.59
2022-12-23T03:29:15.570Z,97634.69
2022-12-23T03:31:45.479Z,97627.75
2022-12-23T03:34:18.444Z,97621.41
2022-12-23T03:36:51.463Z,97627.75
2022-12-23T03:39:26.375Z,97624.50
2022-12-23T03:42:01.935Z,97619.97
2022-12-23T03:44:37.245Z,97624.50
2022-12-23T03:47:07.599Z,97632.47
2022-12-23T03:49:45.357Z,97625.31
2022-12-23T03:52:21.205Z,97623.44
2022-12-23T03:54:53.790Z,97625.50
2022-12-23T03:57:58.830Z,97626.53
2022-12-23T04:00:30.443Z,97623.28
2022-12-23T04:03:10.673Z,97623.28
2022-12-23T04:05:41.820Z,97627.56
2022-12-23T04:08:18.655Z,97628.59
2022-12-23T04:10:46.683Z,97615.31
2022-12-23T04:13:14.308Z,97617.97
2022-12-23T04:15:42.357Z,97621.44
2022-12-23T04:18:11.366Z,97615.69
2022-12-23T04:20:38.641Z,97614.66
2022-12-23T04:23:06.373Z,97604.84
2022-12-23T04:25:33.675Z,97601.19
2022-12-23T04:28:01.351Z,97600.34
2022-12-23T04:30:33.998Z,97596.88
2022-12-23T04:33:03.191Z,97595.88
2022-12-23T04:35:31.390Z,97586.03
2022-12-23T04:37:58.986Z,97572.97
2022-12-23T04:40:26.662Z,97565.59
2022-12-23T04:42:54.188Z,97569.28
2022-12-23T04:45:21.840Z,97572.56
2022-12-23T04:47:49.945Z,97571.94
2022-12-23T04:50:17.213Z,97576.22
2022-12-23T04:52:44.754Z,97574.59
2022-12-23T04:55:12.848Z,97570.09
2022-12-23T04:57:40.446Z,97572.56
2022-12-23T05:00:08.499Z,97571.72
2022-12-23T05:02:36.306Z,97566.41
2022-12-23T05:05:04.136Z,97567.25
2022-12-23T05:07:32.380Z,97570.09
2022-12-23T05:10:01.883Z,97581.53
2022-12-23T05:12:31.178Z,97581.97
2022-12-23T05:14:58.539Z,97587.28
2022-12-23T05:17:26.808Z,97587.28
2022-12-23T05:19:54.081Z,97587.91
2022-12-23T05:22:21.614Z,97582.34
2022-12-23T05:24:48.919Z,97583.75
2022-12-23T05:27:16.475Z,97578.66
2022-12-23T05:29:43.757Z,97580.25
2022-12-23T05:32:11.463Z,97585.59
2022-12-23T05:34:38.788Z,97587.84
2022-12-23T05:37:06.689Z,97589.88
2022-12-23T05:39:34.070Z,97581.69
2022-12-23T05:42:01.584Z,97585.38
2022-12-23T05:44:28.831Z,97581.09
2022-12-23T05:46:56.515Z,97588.84
2022-12-23T05:49:25.308Z,97578.22
2022-12-23T05:51:52.871Z,97585.97
2022-12-23T05:54:20.706Z,97583.13
2022-12-23T05:56:48.262Z,97587.41
2022-12-23T05:59:15.568Z,97583.94
2022-12-23T06:01:44.134Z,97588.81
2022-12-23T06:04:12.331Z,97578.78
2022-12-23T06:06:39.978Z,97576.53
2022-12-23T06:09:07.261Z,97572.81
2022-12-23T06:11:34.840Z,97577.13
2022-12-23T06:14:02.785Z,97577.94
2022-12-23T06:16:30.483Z,97577.94
2022-12-23T06:18:57.953Z,97569.75
2022-12-23T06:21:25.588Z,97565.44
2022-12-23T06:23:52.879Z,97565.03
2022-12-23T06:26:20.651Z,97569.53
2022-12-23T06:28:47.907Z,97571.97
2022-12-23T06:31:15.882Z,97566.66
2022-12-23T06:33:43.212Z,97575.44
2022-12-23T06:36:10.838Z,97575.25
2022-12-23T06:38:38.034Z,97570.97
2022-12-23T06:41:05.694Z,97570.97
2022-12-23T06:43:33.295Z,97573.63
2022-12-23T06:46:01.184Z,97577.28
2022-12-23T06:48:28.516Z,97573.63
2022-12-23T06:50:56.235Z,97576.28
2022-12-23T06:53:23.654Z,97575.44
2022-12-23T06:55:59.910Z,97578.94
2022-12-23T06:58:27.252Z,97576.28
2022-12-23T07:00:55.255Z,97574.44
2022-12-23T07:03:22.668Z,97573.63
2022-12-23T07:05:51.110Z,97573.63
2022-12-23T07:08:18.777Z,97572.78
2022-12-23T07:10:46.465Z,97572.78
2022-12-23T07:13:14.727Z,97569.31
2022-12-23T07:15:42.337Z,97574.63
2022-12-23T07:18:09.597Z,97571.97
2022-12-23T07:20:37.500Z,97569.91
2022-12-23T07:23:04.908Z,97575.25
2022-12-23T07:25:32.438Z,97574.22
2022-12-23T07:27:59.658Z,97580.16
2022-12-23T07:30:27.426Z,97578.50
2022-12-23T07:32:54.786Z,97587.53
2022-12-23T07:35:22.680Z,97589.94
2022-12-23T07:37:56.435Z,97585.47
2022-12-23T07:40:25.758Z,97588.31
2022-12-23T07:42:58.397Z,97595.50
2022-12-23T07:45:27.547Z,97587.53
2022-12-23T07:47:57.116Z,97585.47
2022-12-23T07:50:25.712Z,97591.78
2022-12-23T07:52:54.091Z,97591.59
2022-12-23T07:55:22.149Z,97588.13
2022-12-23T07:57:50.828Z,97584.25
2022-12-23T08:00:19.542Z,97590.59
2022-12-23T08:02:48.041Z,97587.13
2022-12-23T08:05:16.956Z,97584.47
2022-12-23T08:07:49.338Z,97578.34
2022-12-23T08:10:17.018Z,97582.00
2022-12-23T08:12:46.455Z,97583.47
2022-12-23T08:15:14.123Z,97574.88
2022-12-23T08:17:43.209Z,97576.94
2022-12-23T08:20:11.122Z,97580.63
2022-12-23T08:22:38.519Z,97577.38
2022-12-23T08:25:06.735Z,97575.75
2022-12-23T08:27:34.594Z,97573.69
2022-12-23T08:30:02.607Z,97566.72
2022-12-23T08:32:29.952Z,97567.53
2022-12-23T08:34:57.657Z,97568.38
2022-12-23T08:37:25.662Z,97568.97
2022-12-23T08:39:53.209Z,97567.94
2022-12-23T08:42:20.562Z,97553.63
2022-12-23T08:44:48.240Z,97560.56
2022-12-23T08:47:15.569Z,97559.75
2022-12-23T08:49:43.237Z,97552.59
2022-12-23T08:52:10.513Z,97555.25
2022-12-23T08:54:38.124Z,97546.25
2022-12-23T08:57:05.353Z,97553.41
2022-12-23T08:59:32.931Z,97543.59
2022-12-23T09:02:02.060Z,97536.66
2022-12-23T09:04:29.807Z,97539.31
2022-12-23T09:06:57.076Z,97539.31
2022-12-23T09:09:24.683Z,97531.94
2022-12-23T09:11:51.980Z,97527.03
2022-12-23T09:14:19.612Z,97532.34
2022-12-23T09:16:50.360Z,97526.00
2022-12-23T09:19:18.102Z,97524.97
2022-12-23T09:21:45.384Z,97517.59
2022-12-23T09:24:12.706Z,97519.63
2022-12-23T09:26:41.284Z,97514.91
2022-12-23T12:20:21.606Z,97453.47
2022-12-23T12:22:53.008Z,97456.97
2022-12-23T12:25:26.097Z,97459.66
2022-12-23T12:27:59.714Z,97453.78
2022-12-23T12:30:35.199Z,97458.28
2022-12-23T12:33:27.778Z,97464.81
2022-12-23T12:36:11.188Z,97460.81
2022-12-23T12:38:40.014Z,97464.50
2022-12-23T12:41:11.363Z,97459.19
2022-12-23T12:43:44.371Z,97457.97
2022-12-23T12:46:28.112Z,97456.38
2022-12-23T12:49:18.958Z,97457.25
2022-12-23T12:52:16.142Z,97457.13
2022-12-23T12:54:46.539Z,97453.28
2022-12-23T12:57:20.174Z,97451.50
2022-12-23T13:00:05.309Z,97462.00
2022-12-23T13:03:12.074Z,97462.44
2022-12-23T13:06:13.336Z,97470.41
2022-12-23T13:09:10.868Z,97469.81
2022-12-23T13:11:45.695Z,97477.22
2022-12-23T13:14:45.349Z,97473.97
2022-12-23T13:17:28.881Z,97488.31
2022-12-23T13:20:10.392Z,97490.97
2022-12-23T13:22:39.908Z,97488.31
2022-12-23T13:25:49.968Z,97493.63
2022-12-23T13:28:37.394Z,97489.56
2022-12-23T13:31:23.059Z,97487.06
2022-12-23T13:34:22.562Z,97489.50
2022-12-23T13:37:07.667Z,97498.50
2022-12-23T13:39:55.953Z,97496.44
2022-12-23T13:42:31.115Z,97507.09
2022-12-23T13:45:00.008Z,97509.31
2022-12-23T13:48:10.663Z,97502.97
2022-12-23T13:51:04.151Z,97512.00
2022-12-23T13:54:04.526Z,97507.25
2022-12-23T13:56:41.769Z,97507.41
2022-12-23T13:59:11.665Z,97504.53
2022-12-23T14:01:41.945Z,97503.69
2022-12-23T14:04:34.806Z,97504.88
2022-12-23T14:07:22.607Z,97502.47
2022-12-23T14:09:57.223Z,97506.53
2022-12-23T14:12:39.558Z,97507.31
2022-12-23T14:15:26.135Z,97508.72
2022-12-23T14:18:30.535Z,97512.19
2022-12-23T14:21:07.156Z,97508.50
2022-12-23T14:24:05.426Z,97521.63
2022-12-23T14:26:57.851Z,97519.16
2022-12-23T14:29:52.778Z,97519.75
2022-12-23T14:32:25.259Z,97523.69
2022-12-23T14:35:18.290Z,97523.69
2022-12-23T14:38:08.159Z,97516.72
2022-12-23T14:40:38.482Z,97522.03
2022-12-23T14:43:27.703Z,97519.97
2022-12-23T14:45:56.897Z,97519.97
2022-12-23T14:48:33.337Z,97518.34
2022-12-23T14:51:10.734Z,97515.91
2022-12-23T14:54:00.091Z,97513.03
2022-12-23T14:56:59.988Z,97516.28
2022-12-23T14:59:40.768Z,97516.72
2022-12-23T15:02:30.360Z,97519.16
2022-12-23T15:04:59.135Z,97514.66
2022-12-23T15:07:32.920Z,97523.69
2022-12-23T15:10:05.877Z,97518.34
2022-12-23T15:12:37.078Z,97524.09
2022-12-23T15:15:28.095Z,97529.44
2022-12-23T15:18:09.780Z,97522.72
2022-12-23T15:20:37.610Z,97520.84
2022-12-23T15:23:15.888Z,97516.78
2022-12-23T15:25:48.835Z,97524.78
2022-12-23T15:28:20.131Z,97535.63
2022-12-23T15:30:52.364Z,97538.09
2022-12-23T15:36:15.342Z,97542.59
2022-12-23T15:38:42.723Z,97543.00
2022-12-23T15:41:18.471Z,97538.47
2022-12-23T15:43:46.194Z,97531.09
2022-12-23T15:46:29.229Z,97526.56
2022-12-23T15:48:58.228Z,97520.44
2022-12-23T15:54:45.422Z,97523.69
2022-12-23T15:57:19.278Z,97518.34
2022-12-23T15:59:46.750Z,97526.34
2022-12-23T16:05:37.594Z,97534.34
2022-12-23T16:08:21.789Z,97529.00
2022-12-23T16:11:03.539Z,97541.72
2022-12-23T16:13:31.837Z,97533.16
2022-12-23T16:16:18.793Z,97539.50
2022-12-23T16:18:47.919Z,97531.09
2022-12-23T16:21:15.933Z,97520.84
2022-12-23T16:23:51.203Z,97526.19
2022-12-23T16:26:19.808Z,97521.69
2022-12-23T16:28:51.060Z,97514.50
2022-12-23T16:31:20.304Z,97522.50
2022-12-23T16:33:47.815Z,97516.56
2022-12-23T16:36:27.014Z,97513.69
2022-12-23T16:39:05.683Z,97514.94
2022-12-23T16:41:33.730Z,97512.28
2022-12-23T16:44:02.100Z,97514.34
2022-12-23T16:46:37.336Z,97511.69
2022-12-23T16:49:08.327Z,97503.69
2022-12-23T16:51:37.899Z,97505.34
2022-12-23T16:54:05.490Z,97502.06
2022-12-23T16:56:36.002Z,97497.22
2022-12-23T16:59:03.927Z,97491.88
2022-12-23T17:01:34.754Z,97499.41
2022-12-23T17:04:03.135Z,97496.75
2022-12-23T17:06:30.535Z,97501.63
2022-12-23T17:08:58.266Z,97508.22
2022-12-23T17:11:29.030Z,97496.53
2022-12-23T17:14:03.860Z,97495.50
2022-12-23T17:16:33.944Z,97501.63
2022-12-23T17:19:01.602Z,97500.59
2022-12-23T17:21:31.018Z,97503.66
2022-12-23T17:24:12.871Z,97502.47
2022-12-23T17:26:40.153Z,97508.59
2022-12-23T17:29:12.035Z,97496.28
2022-12-23T17:31:42.023Z,97508.13
2022-12-23T17:34:23.461Z,97510.44
2022-12-23T17:36:51.455Z,97522.72
2022-12-23T17:39:20.250Z,97522.13
2022-12-23T17:41:48.495Z,97524.56
2022-12-23T17:44:17.848Z,97527.81
2022-12-23T17:46:46.602Z,97532.34
2022-12-23T17:49:14.370Z,97535.22
2022-12-23T17:51:42.758Z,97538.09
2022-12-23T17:54:30.726Z,97541.41
2022-12-23T17:56:58.132Z,97538.97
2022-12-23T17:59:25.904Z,97548.81
2022-12-23T18:01:54.202Z,97536.53
2022-12-23T18:04:21.965Z,97539.81
2022-12-23T18:06:49.378Z,97536.53
2022-12-23T18:09:18.824Z,97532.84
2022-12-23T18:11:47.466Z,97533.28
2022-12-23T18:14:23.663Z,97538.63
2022-12-23T18:16:50.937Z,97543.56
2022-12-23T18:19:20.135Z,97541.56
2022-12-23T18:21:48.001Z,97542.00
2022-12-23T18:24:15.935Z,97549.38
2022-12-23T18:26:43.574Z,97535.91
2022-12-23T18:29:11.222Z,97542.88
2022-12-23T18:31:50.997Z,97546.78
2022-12-23T18:34:20.378Z,97549.88
2022-12-23T18:36:48.318Z,97543.13
2022-12-23T18:39:16.167Z,97541.72
2022-12-23T18:41:43.480Z,97538.25
2022-12-23T18:44:20.857Z,97543.00
2022-12-23T18:46:48.949Z,97540.53
2022-12-23T18:49:16.633Z,97544.22
2022-12-23T18:51:43.875Z,97546.06
2022-12-23T18:54:16.056Z,97542.81
2022-12-23T18:56:43.816Z,97543.84
2022-12-23T18:59:24.252Z,97541.19
2022-12-23T19:01:57.499Z,97531.56
2022-12-23T19:04:26.693Z,97537.50
2022-12-23T19:06:55.887Z,97543.25
2022-12-23T19:09:24.717Z,97541.41
2022-12-23T19:11:53.529Z,97546.34
2022-12-23T19:14:22.069Z,97538.94
2022-12-23T19:16:51.932Z,97547.97
2022-12-23T19:19:21.022Z,97544.72
2022-12-23T19:21:48.780Z,97542.06
2022-12-23T19:24:16.617Z,97538.59
2022-12-23T19:26:43.888Z,97535.94
2022-12-23T19:29:13.917Z,97541.25
2022-12-23T19:31:41.314Z,97541.47
2022-12-23T19:34:15.107Z,97544.31
2022-12-23T19:36:43.615Z,97545.97
2022-12-23T19:39:17.256Z,97547.22
2022-12-23T19:41:45.678Z,97542.91
2022-12-23T19:44:13.968Z,97534.94
2022-12-23T19:46:41.736Z,97541.91
2022-12-23T19:49:14.015Z,97531.25
2022-12-23T19:51:45.188Z,97534.94
2022-12-23T19:54:12.847Z,97537.59
2022-12-23T19:56:40.968Z,97542.91
2022-12-23T19:59:08.958Z,97546.03
2022-12-23T20:01:36.239Z,97550.09
2022-12-23T20:04:04.844Z,97541.06
2022-12-23T20:06:34.744Z,97540.06
2022-12-23T20:09:06.325Z,97535.69
2022-12-23T20:11:42.202Z,97529.34
2022-12-23T20:14:10.833Z,97522.19
2022-12-23T20:16:39.365Z,97516.84
2022-12-23T20:19:08.227Z,97513.19
2022-12-23T20:21:38.491Z,97512.34
2022-12-23T20:24:06.855Z,97496.38
2022-12-23T20:26:34.331Z,97492.69
2022-12-23T20:29:01.969Z,97492.69
2022-12-23T20:31:31.689Z,97496.97
2022-12-23T20:34:01.203Z,97485.31
2022-12-23T20:36:31.719Z,97479.19
2022-12-23T20:39:02.022Z,97478.34
2022-12-23T20:41:31.496Z,97482.06
2022-12-23T20:46:47.570Z,97476.75
2022-12-23T20:49:15.274Z,97478.34
2022-12-23T20:51:42.595Z,97480.00
2022-12-23T20:54:10.270Z,97480.22
2022-12-23T20:56:37.591Z,97484.50
2022-12-23T20:59:05.293Z,97477.34
2022-12-23T21:01:38.905Z,97476.53
2022-12-23T21:04:09.701Z,97475.09
2022-12-23T21:06:37.113Z,97478.59
2022-12-23T21:09:06.745Z,97479.19
2022-12-23T21:11:37.689Z,97475.94
2022-12-23T21:14:07.449Z,97480.00
2022-12-23T21:16:36.814Z,97476.53
2022-12-23T21:19:08.409Z,97487.53
2022-12-23T21:21:35.883Z,97477.94
2022-12-23T21:24:05.075Z,97477.09
2022-12-23T21:26:33.999Z,97472.63
2022-12-23T21:29:04.491Z,97474.69
2022-12-23T21:31:34.417Z,97468.91
2022-12-23T21:34:02.540Z,97460.94
2022-12-23T21:36:32.518Z,97461.13
2022-12-23T21:39:00.654Z,97456.66
2022-12-23T21:41:31.225Z,97461.97
2022-12-23T21:44:00.155Z,97469.94
2022-12-23T21:46:28.955Z,97475.28
2022-12-23T21:48:58.674Z,97472.63
2022-12-23T21:51:33.311Z,97472.63
2022-12-23T21:54:07.294Z,97477.94
2022-12-23T21:56:35.516Z,97475.47
2022-12-23T21:59:10.214Z,97472.63
2022-12-23T22:01:38.112Z,97464.84
2022-12-23T22:04:06.217Z,97465.66
2022-12-23T22:06:37.196Z,97475.69
2022-12-23T22:09:06.635Z,97470.97
2022-12-23T22:11:36.659Z,97466.69
2022-12-23T22:14:06.690Z,97457.31
2022-12-23T22:16:35.841Z,97457.06
2022-12-23T22:19:04.951Z,97457.06
2022-12-23T22:21:33.783Z,97444.81
2022-12-23T22:24:02.854Z,97456.25
2022-12-23T22:26:31.859Z,97439.91
2022-12-23T22:29:01.991Z,97453.66
2022-12-23T23:12:54.467Z,97438.63
2022-12-23T23:15:22.079Z,97435.19
2022-12-23T23:17:49.373Z,97442.56
2022-12-23T23:20:17.038Z,97444.16
2022-12-23T23:22:44.545Z,97440.69
2022-12-23T23:25:12.127Z,97430.28
2022-12-23T23:27:39.340Z,97423.34
2022-12-23T23:30:07.495Z,97418.03
2022-12-23T23:32:34.904Z,97415.38
2022-12-23T23:35:08.711Z,97418.03
2022-12-23T23:37:38.001Z,97413.75
2022-12-23T23:40:06.428Z,97409.44
2022-12-23T23:42:34.203Z,97399.63
2022-12-23T23:45:01.860Z,97398.81
2022-12-23T23:47:34.365Z,97391.03
2022-12-23T23:50:03.831Z,97390.25
2022-12-23T23:52:31.366Z,97383.91
2022-12-23T23:54:58.936Z,97382.84
2022-12-23T23:57:26.811Z,97386.56
2022-12-23T23:59:54.399Z,97380.66
